Time;durP1;ratioP1;P1;durP2;ratioP2;P2;SDS_P1;SDS_P2;PMS_P1;PMS_P2;Temp;Humidity;BMP_temperature;BMP_pressure;BME280_temperature;BME280_humidity;BME280_pressure;Samples;Min_cycle;Max_cycle;Signal;HPM_P1;HPM_P2
2022/04/11 18:59:10;;;;;;;4.88;1.85;;;14.70;96.70;;;;;;5107189;27;20133;-83
2022/04/11 19:01:38;;;;;;;5.68;1.70;;;14.70;96.70;;;;;;5104974;28;20043;-84
2022/04/11 19:04:08;;;;;;;9.18;2.83;;;14.90;96.70;;;;;;5098232;28;20035;-80
2022/04/11 19:06:39;;;;;;;4.82;2.35;;;14.90;96.70;;;;;;5099578;28;20048;-82
2022/04/11 19:09:09;;;;;;;4.32;2.20;;;15.00;96.70;;;;;;5102526;28;20245;-82
2022/04/11 19:11:37;;;;;;;5.05;2.05;;;14.90;96.70;;;;;;5077664;28;20048;-82
2022/04/11 19:14:05;;;;;;;6.45;2.00;;;14.90;96.70;;;;;;5074559;28;20074;-82
2022/04/11 19:16:35;;;;;;;4.47;1.67;;;14.90;96.70;;;;;;5102541;28;20070;-83
2022/04/11 19:19:04;;;;;;;3.85;1.85;;;15.10;96.70;;;;;;5096263;28;20100;-82
2022/04/11 19:21:34;;;;;;;4.25;1.33;;;15.20;96.70;;;;;;5093481;28;20044;-81
2022/04/11 19:24:04;;;;;;;4.03;1.38;;;15.10;96.70;;;;;;5073570;28;20048;-83
2022/04/11 19:26:33;;;;;;;4.13;1.88;;;15.00;96.70;;;;;;5122388;27;20051;-88
2022/04/11 19:29:03;;;;;;;6.38;2.33;;;15.00;96.70;;;;;;5085513;28;20567;-89
2022/04/11 19:31:34;;;;;;;45.53;24.50;;;14.90;96.70;;;;;;5075745;28;20299;-90
2022/04/11 19:34:06;;;;;;;15.45;7.70;;;14.70;96.70;;;;;;5094071;28;20040;-87
2022/04/11 19:36:35;;;;;;;10.77;6.57;;;14.40;96.70;;;;;;5103253;28;20048;-84
2022/04/11 19:39:04;;;;;;;24.90;14.68;;;14.30;96.70;;;;;;5097774;28;20075;-86
2022/04/11 19:41:32;;;;;;;18.50;10.70;;;14.20;96.70;;;;;;5103677;28;20028;-85
2022/04/11 19:44:00;;;;;;;26.95;17.20;;;14.10;96.70;;;;;;5101291;28;20051;-85
2022/04/11 19:46:29;;;;;;;14.82;8.50;;;14.00;96.70;;;;;;5101196;28;20036;-85
2022/04/11 19:51:48;;;;;;;6.93;3.70;;;14.30;96.70;;;;;;5096792;28;20094;-84
2022/04/11 19:54:20;;;;;;;5.03;3.25;;;14.50;96.70;;;;;;5076341;28;20566;-84
2022/04/11 19:56:53;;;;;;;6.55;2.85;;;14.60;96.70;;;;;;5085228;28;20047;-83
2022/04/11 19:59:24;;;;;;;4.28;2.05;;;14.80;96.70;;;;;;5093921;28;20055;-85
2022/04/11 20:01:53;;;;;;;4.85;2.25;;;14.90;96.70;;;;;;5095954;28;20054;-87
2022/04/11 20:04:21;;;;;;;4.88;1.95;;;15.00;96.70;;;;;;5102074;28;20102;-82
2022/04/11 20:06:51;;;;;;;6.40;2.72;;;14.90;96.70;;;;;;5097789;28;20040;-86
2022/04/11 20:09:21;;;;;;;7.13;2.33;;;14.80;96.70;;;;;;5086750;28;20040;-86
2022/04/11 20:11:51;;;;;;;7.22;3.83;;;14.80;96.70;;;;;;5068986;28;20548;-85
2022/04/11 20:14:20;;;;;;;7.70;4.07;;;14.80;96.70;;;;;;5085574;28;20188;-81
2022/04/11 20:16:48;;;;;;;7.93;4.47;;;14.70;96.70;;;;;;5084889;28;20047;-81
2022/04/11 20:19:19;;;;;;;9.43;5.15;;;14.60;96.70;;;;;;5086727;28;20435;-80
2022/04/11 20:21:47;;;;;;;8.20;4.80;;;14.60;96.70;;;;;;5087409;28;20459;-82
2022/04/11 20:24:16;;;;;;;9.27;5.47;;;14.70;96.70;;;;;;5086288;28;20039;-83
2022/04/11 20:26:45;;;;;;;9.95;5.68;;;14.70;96.70;;;;;;5084049;28;20128;-81
2022/04/11 20:29:13;;;;;;;8.73;5.22;;;14.70;96.70;;;;;;5074669;28;20058;-80
2022/04/11 20:31:41;;;;;;;9.65;6.13;;;14.60;96.70;;;;;;5068531;28;20073;-80
2022/04/11 20:34:09;;;;;;;11.52;6.80;;;14.50;96.70;;;;;;5084778;28;20047;-80
2022/04/11 20:36:37;;;;;;;12.80;7.10;;;14.40;96.70;;;;;;5087371;28;20101;-81
2022/04/11 20:39:05;;;;;;;11.52;8.20;;;14.30;96.70;;;;;;5084949;28;20631;-81
2022/04/11 20:41:37;;;;;;;16.50;9.63;;;14.30;96.70;;;;;;5065194;28;20598;-81
2022/04/11 20:44:06;;;;;;;13.65;7.93;;;14.20;96.70;;;;;;5101930;28;20048;-83
2022/04/11 20:46:34;;;;;;;9.13;6.45;;;14.30;96.70;;;;;;5088698;28;20048;-78
2022/04/11 20:49:03;;;;;;;11.77;6.20;;;14.20;96.70;;;;;;5083418;28;20159;-81
2022/04/11 20:51:30;;;;;;;9.65;5.32;;;14.10;96.70;;;;;;5078601;28;20072;-78
2022/04/11 20:53:58;;;;;;;9.27;5.30;;;13.90;96.70;;;;;;5063686;28;20044;-79
2022/04/11 20:56:26;;;;;;;8.00;4.90;;;13.90;96.70;;;;;;5065777;28;20462;-78
2022/04/11 20:59:00;;;;;;;10.90;5.25;;;13.90;96.70;;;;;;5077489;28;20088;-79
2022/04/11 21:01:31;;;;;;;10.77;6.18;;;13.90;96.70;;;;;;5083501;28;20732;-79
2022/04/11 21:03:59;;;;;;;9.80;5.95;;;13.70;96.70;;;;;;5065864;28;20044;-78
2022/04/11 21:06:27;;;;;;;8.45;5.45;;;13.70;96.70;;;;;;5083727;28;20127;-81
2022/04/11 21:08:55;;;;;;;10.43;5.97;;;13.70;96.70;;;;;;5075845;28;20102;-78
2022/04/11 21:11:23;;;;;;;7.70;4.05;;;13.50;96.70;;;;;;5080038;28;20044;-78
2022/04/11 21:13:51;;;;;;;7.50;4.13;;;13.50;96.70;;;;;;5079987;28;20044;-78
2022/04/11 21:16:20;;;;;;;6.50;4.30;;;13.40;96.70;;;;;;5078985;28;20443;-78
2022/04/11 21:18:49;;;;;;;7.35;3.72;;;13.20;96.70;;;;;;5081674;28;20044;-78
2022/04/11 21:21:17;;;;;;;6.47;3.15;;;13.10;96.70;;;;;;5081051;28;20071;-79
2022/04/11 21:23:45;;;;;;;6.90;3.17;;;13.10;96.70;;;;;;5065389;28;20059;-78
2022/04/11 21:26:14;;;;;;;6.13;2.88;;;13.00;96.70;;;;;;5081377;28;20502;-78
2022/04/11 21:28:43;;;;;;;4.47;2.60;;;12.90;96.70;;;;;;5058838;28;20047;-78
2022/04/11 21:31:11;;;;;;;4.55;2.88;;;12.90;96.70;;;;;;5081373;28;20756;-77
2022/04/11 21:33:41;;;;;;;5.63;2.35;;;12.90;96.70;;;;;;5082985;28;20035;-78
2022/04/11 21:36:09;;;;;;;3.75;2.47;;;12.90;96.70;;;;;;5081037;28;20032;-77
2022/04/11 21:38:37;;;;;;;5.25;2.70;;;12.90;96.70;;;;;;5065322;28;20056;-78
2022/04/11 21:41:05;;;;;;;3.45;2.20;;;12.90;96.70;;;;;;5083346;28;20410;-78
2022/04/11 21:43:34;;;;;;;4.28;2.35;;;12.80;96.70;;;;;;5075647;28;20036;-77
2022/04/11 21:46:02;;;;;;;5.47;2.63;;;12.80;96.70;;;;;;5081784;28;20437;-78
2022/04/11 21:48:32;;;;;;;4.97;2.38;;;12.80;96.70;;;;;;5063128;28;20098;-78
2022/04/11 21:51:02;;;;;;;3.55;2.20;;;12.80;96.70;;;;;;5081450;28;20055;-79
2022/04/11 21:53:31;;;;;;;4.93;2.35;;;12.80;96.70;;;;;;5076885;28;20123;-77
2022/04/11 21:55:59;;;;;;;4.93;2.30;;;12.80;96.70;;;;;;5081889;28;20059;-78
2022/04/11 21:58:27;;;;;;;5.47;2.20;;;12.70;96.70;;;;;;5078885;28;20051;-78
2022/04/11 22:00:55;;;;;;;5.15;2.05;;;12.70;96.70;;;;;;5075894;28;20460;-76
2022/04/11 22:03:23;;;;;;;3.45;2.03;;;12.70;96.70;;;;;;5079264;28;20119;-75
2022/04/11 22:05:52;;;;;;;4.20;2.30;;;12.70;96.70;;;;;;5064765;28;20475;-76
2022/04/11 22:08:22;;;;;;;5.13;2.03;;;12.70;96.70;;;;;;5075782;28;20617;-75
2022/04/11 22:10:50;;;;;;;4.88;2.20;;;12.70;96.70;;;;;;5080991;28;20043;-75
2022/04/11 22:13:18;;;;;;;4.55;1.88;;;12.70;96.70;;;;;;5082476;28;20075;-75
2022/04/11 22:15:46;;;;;;;7.80;2.47;;;12.60;96.70;;;;;;5081400;28;20040;-75
2022/04/11 22:18:18;;;;;;;3.00;1.85;;;12.60;96.70;;;;;;5062207;28;20894;-75
2022/04/11 22:20:47;;;;;;;3.58;1.75;;;12.50;96.70;;;;;;5091008;28;20050;-75
2022/04/11 22:23:15;;;;;;;4.25;2.13;;;12.50;96.70;;;;;;5083375;28;20067;-76
2022/04/11 22:25:44;;;;;;;5.47;2.72;;;12.50;96.70;;;;;;5080889;28;20044;-75
2022/04/11 22:28:12;;;;;;;6.35;3.58;;;12.10;96.70;;;;;;5076724;28;20048;-78
2022/04/11 22:30:40;;;;;;;7.68;3.80;;;12.10;96.70;;;;;;5079698;28;20486;-77
2022/04/11 22:33:08;;;;;;;7.97;3.47;;;12.10;96.70;;;;;;5081253;28;20042;-77
2022/04/11 22:35:36;;;;;;;5.38;3.30;;;12.00;96.70;;;;;;5080800;28;20163;-76
2022/04/11 22:38:04;;;;;;;5.28;2.95;;;12.00;96.70;;;;;;5078389;28;20044;-76
2022/04/11 22:40:32;;;;;;;7.25;3.33;;;11.90;96.70;;;;;;5079528;28;20051;-76
2022/04/11 22:43:02;;;;;;;4.35;2.45;;;12.00;96.70;;;;;;5075895;28;20040;-76
2022/04/11 22:45:30;;;;;;;3.53;1.85;;;11.90;96.70;;;;;;5064793;28;20058;-76
2022/04/11 22:47:58;;;;;;;4.35;1.25;;;11.80;96.70;;;;;;5056126;28;20044;-76
2022/04/11 22:50:27;;;;;;;6.13;1.40;;;11.70;96.70;;;;;;5081561;28;20050;-76
2022/04/11 22:52:56;;;;;;;6.75;1.30;;;11.70;96.70;;;;;;5063048;28;20142;-77
2022/04/11 22:55:24;;;;;;;2.90;1.40;;;11.80;96.70;;;;;;5081894;28;20122;-76
2022/04/11 22:57:52;;;;;;;3.28;1.00;;;11.80;96.70;;;;;;5080723;28;20067;-78
2022/04/11 23:00:21;;;;;;;2.22;1.08;;;11.80;96.70;;;;;;5061975;28;20149;-76
2022/04/11 23:02:49;;;;;;;5.80;1.75;;;11.70;96.70;;;;;;5081169;28;20413;-76
2022/04/11 23:05:18;;;;;;;5.40;1.20;;;11.70;96.70;;;;;;5081687;28;20036;-76
2022/04/11 23:07:45;;;;;;;1.52;0.98;;;11.60;96.70;;;;;;5081727;28;20040;-76
2022/04/11 23:10:13;;;;;;;4.85;1.15;;;11.60;96.70;;;;;;5080448;28;20101;-77
2022/04/11 23:12:54;;;;;;;4.68;1.40;;;11.50;96.70;;;;;;5080333;28;20516;-76
2022/04/11 23:15:25;;;;;;;2.42;0.88;;;11.50;96.70;;;;;;5073879;28;20047;-76
2022/04/11 23:17:53;;;;;;;3.75;1.10;;;11.40;96.70;;;;;;5081015;28;20044;-76
2022/04/11 23:20:21;;;;;;;4.18;1.05;;;11.30;96.70;;;;;;5081034;28;20238;-76
2022/04/11 23:22:49;;;;;;;2.33;1.00;;;11.20;96.70;;;;;;5080296;28;20044;-77
2022/04/11 23:25:17;;;;;;;3.42;1.05;;;11.30;96.70;;;;;;5065895;28;20117;-76
2022/04/11 23:27:45;;;;;;;3.65;1.20;;;11.30;96.70;;;;;;5077484;28;20040;-76
2022/04/11 23:30:14;;;;;;;2.80;1.10;;;11.30;96.70;;;;;;5061398;28;20051;-76
2022/04/11 23:32:44;;;;;;;4.38;1.23;;;11.30;96.70;;;;;;5076092;28;20045;-76
2022/04/11 23:35:12;;;;;;;2.65;1.17;;;11.20;96.70;;;;;;5082160;28;20051;-76
2022/04/11 23:37:40;;;;;;;3.10;1.27;;;11.20;96.70;;;;;;5080426;28;20051;-77
2022/04/11 23:42:56;;;;;;;2.38;1.20;;;11.30;96.70;;;;;;5084983;28;20087;-81
2022/04/11 23:45:25;;;;;;;4.32;1.52;;;11.20;96.70;;;;;;5079820;28;20037;-81
2022/04/11 23:47:54;;;;;;;2.47;1.40;;;11.10;96.70;;;;;;5084896;28;20051;-81
2022/04/11 23:50:23;;;;;;;4.47;1.45;;;11.10;96.70;;;;;;5084876;28;20068;-82
2022/04/11 23:52:50;;;;;;;2.95;1.48;;;11.10;96.70;;;;;;5086065;28;20048;-81
2022/04/11 23:55:19;;;;;;;2.70;1.10;;;11.10;96.70;;;;;;5082816;28;20044;-81
2022/04/11 23:57:46;;;;;;;5.50;1.60;;;11.00;96.70;;;;;;5082150;28;20052;-80
